This is the latest recevied weather packets stored in our database for station/object N0QV. If no packets are shown the sender has not sent any weather packets the latest 1 day(s).
| Time | Temp. | Humidity | Pressure | Rain* | Wind** | Luminosity | Snow |
|---|---|---|---|---|---|---|---|
| 1777998773 | 8.89° C | 44% | 1012.1 hPa | 0 mm | 0.89 m/s, 245° | 139 W/m² | - |
| 1777998470 | 9.44° C | 43% | 1012.2 hPa | 0 mm | 1.79 m/s, 285° | 176 W/m² | - |
| 1777998167 | 10° C | 44% | 1012 hPa | 0 mm | 0.45 m/s, 248° | 177 W/m² | - |
| 1777997864 | 10° C | 42% | 1012.1 hPa | 0 mm | 1.34 m/s, 200° | 943 W/m² | - |
| 1777997561 | 9.44° C | 43% | 1012.3 hPa | 0 mm | 1.34 m/s, 251° | 624 W/m² | - |
| 1777997258 | 10.56° C | 42% | 1012.2 hPa | 0 mm | 1.79 m/s, 267° | 912 W/m² | - |
| 1777996956 | 10.56° C | 41% | 1012.3 hPa | 0 mm | 0.89 m/s, 250° | 865 W/m² | - |
| 1777996652 | 10° C | 44% | 1012.2 hPa | 0 mm | 0.45 m/s, 297° | 707 W/m² | - |
| 1777996348 | 11.11° C | 40% | 1012.2 hPa | 0 mm | 2.24 m/s, 297° | 241 W/m² | - |
| 1777996045 | 10.56° C | 42% | 1012.2 hPa | 0 mm | 0.89 m/s, 283° | 924 W/m² | - |
| 1777995741 | 8.89° C | 45% | 1012.1 hPa | 0 mm | 0.45 m/s, 291° | 308 W/m² | - |
| 1777995438 | 8.89° C | 43% | 1012.2 hPa | 0 mm | 0.89 m/s, 258° | 194 W/m² | - |
| 1777995135 | 8.89° C | 44% | 1012.3 hPa | 0 mm | 1.34 m/s, 287° | 461 W/m² | - |
| 1777994832 | 8.89° C | 44% | 1012.3 hPa | 0 mm | 0.45 m/s, 72° | 165 W/m² | - |
| 1777994528 | 9.44° C | 44% | 1012.2 hPa | 0 mm | 0.45 m/s, 311° | 166 W/m² | - |
| 1777994223 | 10° C | 43% | 1012.2 hPa | 0 mm | 0.89 m/s, 291° | 209 W/m² | - |
| 1777993921 | 10° C | 45% | 1012.1 hPa | 0 mm | 1.34 m/s, 269° | 895 W/m² | - |
| 1777993617 | 10° C | 44% | 1012.2 hPa | 0 mm | 0.89 m/s, 273° | 768 W/m² | - |
| 1777993315 | 10° C | 42% | 1012.2 hPa | 0 mm | 2.24 m/s, 328° | 713 W/m² | - |
| 1777993014 | 9.44° C | 43% | 1012.2 hPa | 0 mm | 1.79 m/s, 250° | 325 W/m² | - |
| 1777992714 | 9.44° C | 43% | 1012.2 hPa | 0 mm | 1.79 m/s, 273° | 448 W/m² | - |
| 1777992411 | 9.44° C | 45% | 1012 hPa | 0 mm | 1.34 m/s, 274° | 710 W/m² | - |
| 1777992109 | 9.44° C | 43% | 1012.2 hPa | 0 mm | 0.45 m/s, 325° | 523 W/m² | - |
| 1777991806 | 9.44° C | 44% | 1011.8 hPa | 0 mm | 0.45 m/s, 156° | 557 W/m² | - |
| 1777991503 | 10° C | 46% | 1012 hPa | 0 mm | 0.45 m/s, 160° | 377 W/m² | - |
* Rain latest hour (hover to see other rain measurements)
** Current wind speed in m/s (hover to see current wind gust speed)